createdAt,value
2018-08-28T00:01:49.835Z,69.12
2018-08-28T00:04:23.203Z,69.17
2018-08-28T00:06:56.624Z,69.19
2018-08-28T00:09:30.009Z,69.22
2018-08-28T00:12:03.393Z,69.00
2018-08-28T00:14:36.800Z,69.16
2018-08-28T00:17:10.361Z,69.19
2018-08-28T00:19:43.664Z,69.07
2018-08-28T00:22:17.049Z,69.29
2018-08-28T00:24:50.490Z,69.11
2018-08-28T00:27:23.875Z,69.36
2018-08-28T00:29:57.563Z,68.98
2018-08-28T00:32:30.928Z,68.94
2018-08-28T00:35:04.329Z,69.09
2018-08-28T00:37:37.789Z,68.91
2018-08-28T00:40:11.189Z,68.67
2018-08-28T00:42:44.579Z,68.60
2018-08-28T00:45:18.046Z,69.06
2018-08-28T00:47:51.502Z,68.55
2018-08-28T00:50:24.933Z,68.84
2018-08-28T00:52:58.310Z,68.92
2018-08-28T00:55:31.812Z,69.27
2018-08-28T00:58:05.329Z,69.18
2018-08-28T01:00:38.726Z,69.63
2018-08-28T01:03:12.106Z,69.71
2018-08-28T01:05:45.511Z,69.84
2018-08-28T01:08:18.877Z,69.95
2018-08-28T01:10:52.261Z,69.67
2018-08-28T01:13:25.624Z,69.97
2018-08-28T01:15:59.000Z,69.85
2018-08-28T01:18:32.383Z,69.81
2018-08-28T01:21:05.758Z,69.37
2018-08-28T01:23:39.194Z,69.58
2018-08-28T01:26:12.676Z,69.93
2018-08-28T01:28:46.020Z,69.62
2018-08-28T01:31:19.408Z,69.90
2018-08-28T01:33:52.757Z,69.79
2018-08-28T01:36:26.145Z,69.48
2018-08-28T01:38:59.540Z,69.54
2018-08-28T01:41:33.032Z,69.64
2018-08-28T01:44:06.388Z,69.86
2018-08-28T01:46:39.797Z,69.89
2018-08-28T01:49:13.172Z,69.48
2018-08-28T01:51:46.551Z,69.67
2018-08-28T01:54:19.908Z,69.83
2018-08-28T01:56:53.301Z,69.53
2018-08-28T01:59:26.703Z,69.56
2018-08-28T02:02:00.092Z,69.69
2018-08-28T02:04:33.484Z,69.82
2018-08-28T02:07:06.903Z,69.95
2018-08-28T02:09:40.260Z,69.85
2018-08-28T02:12:13.655Z,69.76
2018-08-28T02:14:47.028Z,69.50
2018-08-28T02:17:20.425Z,69.52
2018-08-28T02:19:53.792Z,69.39
2018-08-28T02:22:27.190Z,69.58
2018-08-28T02:25:00.561Z,69.20
2018-08-28T02:27:33.939Z,68.83
2018-08-28T02:30:07.312Z,69.25
2018-08-28T02:32:40.804Z,69.13
2018-08-28T02:35:14.145Z,69.08
2018-08-28T02:37:47.574Z,69.01
2018-08-28T02:40:20.936Z,68.65
2018-08-28T02:42:54.379Z,68.52
2018-08-28T02:45:27.781Z,68.53
2018-08-28T02:48:01.267Z,68.64
2018-08-28T02:50:34.674Z,68.56
2018-08-28T02:53:08.112Z,68.61
2018-08-28T02:55:41.565Z,68.73
2018-08-28T02:58:14.996Z,68.74
2018-08-28T03:00:48.374Z,68.90
2018-08-28T03:03:21.773Z,69.04
2018-08-28T03:05:55.149Z,69.04
2018-08-28T03:08:28.539Z,68.73
2018-08-28T03:11:01.959Z,69.02
2018-08-28T03:13:35.336Z,69.23
2018-08-28T03:16:08.841Z,68.97
2018-08-28T03:18:42.113Z,69.21
2018-08-28T03:21:15.593Z,68.75
2018-08-28T03:23:48.938Z,68.63
2018-08-28T03:26:22.323Z,68.85
2018-08-28T03:28:55.744Z,69.00
2018-08-28T03:31:29.071Z,68.93
2018-08-28T03:34:02.845Z,68.96
2018-08-28T03:36:36.204Z,68.75
2018-08-28T03:39:09.639Z,68.76
2018-08-28T03:41:43.028Z,68.73
2018-08-28T03:44:16.396Z,68.61
2018-08-28T03:46:50.090Z,68.40
2018-08-28T03:49:23.452Z,68.72
2018-08-28T03:51:56.852Z,68.50
2018-08-28T03:54:30.256Z,68.40
2018-08-28T03:57:03.644Z,68.38
2018-08-28T03:59:37.077Z,68.31
2018-08-28T04:02:10.532Z,68.59
2018-08-28T04:04:43.911Z,68.49
2018-08-28T04:07:17.332Z,68.78
2018-08-28T04:09:50.707Z,68.79
2018-08-28T04:12:24.105Z,68.78
2018-08-28T04:14:57.479Z,68.49
2018-08-28T04:17:30.920Z,68.41
2018-08-28T04:20:04.328Z,68.54
2018-08-28T04:22:37.736Z,68.54
2018-08-28T04:25:11.143Z,68.68
2018-08-28T04:27:44.774Z,68.41
2018-08-28T04:30:18.225Z,68.36
2018-08-28T04:32:51.670Z,68.41
2018-08-28T04:35:25.027Z,68.37
2018-08-28T04:37:58.419Z,68.50
2018-08-28T04:40:31.842Z,68.79
2018-08-28T04:43:05.261Z,68.48
2018-08-28T04:45:38.627Z,68.76
2018-08-28T04:48:12.045Z,68.51
2018-08-28T04:50:45.460Z,68.47
2018-08-28T04:53:18.879Z,68.96
2018-08-28T04:55:52.253Z,68.87
2018-08-28T04:58:25.720Z,68.51
2018-08-28T05:00:59.107Z,68.45
2018-08-28T05:03:32.552Z,68.68
2018-08-28T05:06:06.040Z,68.75
2018-08-28T05:08:39.424Z,68.75
2018-08-28T05:11:12.798Z,68.95
2018-08-28T05:13:46.200Z,68.79
2018-08-28T05:16:19.602Z,68.35
2018-08-28T05:18:53.002Z,68.97
2018-08-28T05:21:26.395Z,68.45
2018-08-28T05:23:59.790Z,68.52
2018-08-28T05:26:33.143Z,68.59
2018-08-28T05:29:06.606Z,68.59
2018-08-28T05:31:40.100Z,68.81
2018-08-28T05:34:13.476Z,69.07
2018-08-28T05:36:46.841Z,69.10
2018-08-28T05:39:20.249Z,69.25
2018-08-28T05:41:53.693Z,68.65
2018-08-28T05:44:27.116Z,68.76
2018-08-28T05:47:00.520Z,68.90
2018-08-28T05:49:33.984Z,68.51
2018-08-28T05:52:07.386Z,68.36
2018-08-28T05:54:40.795Z,68.32
2018-08-28T05:57:14.164Z,68.17
2018-08-28T05:59:47.592Z,68.39
2018-08-28T06:02:20.968Z,67.88
2018-08-28T06:04:54.365Z,68.37
2018-08-28T06:07:27.770Z,68.14
2018-08-28T06:10:01.182Z,67.93
2018-08-28T06:12:34.587Z,68.08
2018-08-28T06:15:08.137Z,67.64
2018-08-28T06:17:41.501Z,67.62
2018-08-28T06:20:14.903Z,67.70
2018-08-28T06:22:48.259Z,67.84
2018-08-28T06:25:21.620Z,67.78
2018-08-28T06:27:54.975Z,67.68
2018-08-28T06:30:28.387Z,67.42
2018-08-28T06:33:01.787Z,67.26
2018-08-28T06:35:35.232Z,67.31
2018-08-28T06:38:08.582Z,67.13
2018-08-28T06:40:41.960Z,67.06
2018-08-28T06:43:15.332Z,67.41
2018-08-28T06:45:48.719Z,67.47
2018-08-28T06:48:22.068Z,67.04
2018-08-28T06:50:55.457Z,66.40
2018-08-28T06:53:28.858Z,66.08
2018-08-28T06:56:02.297Z,66.15
2018-08-28T06:58:35.670Z,66.42
2018-08-28T07:01:09.057Z,66.03
2018-08-28T07:03:42.607Z,65.48
2018-08-28T07:06:16.005Z,65.40
2018-08-28T07:08:49.423Z,64.88
2018-08-28T07:11:25.816Z,64.83
2018-08-28T07:13:59.233Z,64.50
2018-08-28T07:16:32.637Z,64.88
2018-08-28T07:19:06.045Z,64.54
2018-08-28T07:21:39.466Z,64.66
2018-08-28T07:24:12.853Z,64.67
2018-08-28T07:26:46.247Z,64.77
2018-08-28T07:29:19.681Z,64.53
2018-08-28T07:31:53.190Z,63.38
2018-08-28T07:34:26.523Z,63.34
2018-08-28T07:36:59.923Z,64.11
2018-08-28T07:39:33.317Z,63.45
2018-08-28T07:42:06.724Z,62.82
2018-08-28T07:44:40.151Z,62.86
2018-08-28T07:47:13.552Z,63.12
2018-08-28T07:49:46.983Z,63.74
2018-08-28T07:52:20.349Z,62.91
2018-08-28T07:54:53.748Z,62.88
2018-08-28T07:57:27.194Z,63.29
2018-08-28T08:00:00.658Z,63.06
2018-08-28T08:02:34.039Z,62.49
2018-08-28T08:05:07.533Z,61.43
2018-08-28T08:07:41.036Z,61.17
2018-08-28T08:10:14.404Z,60.96
2018-08-28T08:12:47.873Z,60.29
2018-08-28T08:15:21.308Z,60.79
2018-08-28T08:17:54.674Z,60.48
2018-08-28T08:20:28.084Z,59.46
2018-08-28T08:23:01.684Z,59.57
2018-08-28T08:25:35.057Z,58.69
2018-08-28T08:28:08.596Z,57.81
2018-08-28T08:30:41.888Z,58.12
2018-08-28T08:33:15.272Z,57.97
2018-08-28T08:35:48.699Z,57.82
2018-08-28T08:38:22.081Z,58.19
2018-08-28T08:40:55.454Z,58.23
2018-08-28T08:43:28.849Z,58.43
2018-08-28T08:46:02.897Z,57.68
2018-08-28T08:48:36.283Z,58.32
2018-08-28T08:51:09.683Z,58.76
2018-08-28T08:53:43.065Z,59.24
2018-08-28T08:56:16.511Z,57.75
2018-08-28T08:58:49.871Z,56.11
2018-08-28T09:01:23.234Z,54.95
2018-08-28T09:03:56.636Z,56.06
2018-08-28T09:06:30.029Z,54.71
2018-08-28T09:09:03.569Z,55.00
2018-08-28T09:11:36.951Z,53.45
2018-08-28T09:14:10.310Z,54.63
2018-08-28T09:16:43.695Z,54.27
2018-08-28T09:19:17.058Z,54.37
2018-08-28T09:21:50.441Z,53.15
2018-08-28T09:24:23.823Z,53.47
2018-08-28T09:26:57.223Z,53.04
2018-08-28T09:29:30.627Z,52.70
2018-08-28T09:32:04.010Z,52.34
2018-08-28T09:34:37.373Z,53.58
2018-08-28T09:37:10.747Z,53.57
2018-08-28T09:39:44.109Z,53.25
2018-08-28T09:42:17.548Z,51.33
2018-08-28T09:44:50.919Z,50.85
2018-08-28T09:47:24.296Z,52.11
2018-08-28T09:49:57.734Z,52.99
2018-08-28T09:52:31.099Z,52.88
2018-08-28T09:55:04.544Z,54.58
2018-08-28T09:57:38.056Z,52.08
2018-08-28T10:00:16.455Z,51.27
2018-08-28T10:02:49.913Z,51.44
2018-08-28T10:05:23.428Z,52.14
2018-08-28T10:07:56.896Z,51.28
2018-08-28T10:10:30.279Z,50.99
2018-08-28T10:13:03.940Z,51.68
2018-08-28T10:15:37.305Z,51.41
2018-08-28T10:18:10.743Z,51.71
2018-08-28T10:20:44.135Z,53.23
2018-08-28T10:23:17.512Z,52.53
2018-08-28T10:25:50.916Z,53.12
2018-08-28T10:28:24.283Z,52.32
2018-08-28T10:30:57.677Z,52.75
2018-08-28T10:33:31.065Z,52.68
2018-08-28T10:36:04.486Z,49.65
2018-08-28T10:38:37.843Z,49.09
2018-08-28T10:41:11.237Z,47.64
2018-08-28T10:43:44.604Z,49.03
2018-08-28T10:46:18.058Z,47.73
2018-08-28T10:48:51.428Z,48.41
2018-08-28T10:51:24.866Z,49.51
2018-08-28T10:53:58.257Z,50.20
2018-08-28T10:56:31.684Z,51.65
2018-08-28T10:59:05.060Z,49.02
2018-08-28T11:01:38.462Z,48.38
2018-08-28T11:04:11.868Z,49.83
2018-08-28T11:06:45.298Z,49.81
2018-08-28T11:09:18.682Z,48.98
2018-08-28T11:11:52.080Z,48.73
2018-08-28T11:14:25.452Z,48.17
2018-08-28T11:16:58.941Z,48.25
2018-08-28T11:19:32.708Z,48.98
2018-08-28T11:22:06.108Z,49.75
2018-08-28T11:24:39.489Z,49.52
2018-08-28T11:27:12.914Z,47.93
2018-08-28T11:29:46.295Z,48.22
2018-08-28T11:32:19.692Z,48.18
2018-08-28T11:34:53.068Z,47.08
2018-08-28T11:37:26.476Z,47.76
2018-08-28T11:39:59.839Z,46.75
2018-08-28T11:42:33.219Z,47.66
2018-08-28T11:45:07.159Z,48.56
2018-08-28T11:47:40.575Z,48.22
2018-08-28T11:50:13.941Z,47.05
2018-08-28T11:52:47.384Z,47.14
2018-08-28T11:55:20.745Z,46.42
2018-08-28T11:57:54.119Z,46.20
2018-08-28T12:00:27.520Z,47.92
2018-08-28T12:03:01.160Z,47.26
2018-08-28T12:05:34.540Z,47.54
2018-08-28T12:08:07.936Z,47.18
2018-08-28T12:10:41.319Z,48.65
2018-08-28T12:13:14.744Z,48.14
2018-08-28T12:15:48.131Z,47.60
2018-08-28T12:18:21.531Z,48.46
2018-08-28T12:20:54.967Z,48.70
2018-08-28T12:23:28.326Z,49.99
2018-08-28T12:26:01.702Z,49.27
2018-08-28T12:28:35.164Z,47.72
2018-08-28T12:31:08.600Z,47.44
2018-08-28T12:33:41.993Z,46.66
2018-08-28T12:36:15.427Z,46.88
2018-08-28T12:38:48.861Z,46.36
2018-08-28T12:41:22.216Z,46.74
2018-08-28T12:43:55.718Z,46.61
2018-08-28T12:46:29.051Z,47.19
2018-08-28T12:49:02.477Z,47.34
2018-08-28T12:51:35.902Z,46.86
2018-08-28T12:54:09.334Z,46.18
2018-08-28T12:56:42.729Z,45.59
2018-08-28T12:59:16.144Z,45.96
2018-08-28T13:01:49.600Z,45.23
2018-08-28T13:04:23.053Z,46.35
2018-08-28T13:06:56.476Z,45.75
2018-08-28T13:09:29.845Z,45.70
2018-08-28T13:14:42.129Z,46.83
2018-08-28T13:17:15.506Z,47.28
2018-08-28T13:19:48.922Z,48.19
2018-08-28T13:22:22.308Z,46.81
2018-08-28T13:24:55.788Z,46.57
2018-08-28T13:27:29.241Z,47.09
2018-08-28T13:30:02.616Z,46.20
2018-08-28T13:32:35.972Z,47.14
2018-08-28T13:35:09.418Z,46.01
2018-08-28T13:37:43.111Z,46.95
2018-08-28T13:40:16.567Z,47.51
2018-08-28T13:42:49.930Z,47.01
2018-08-28T13:45:23.347Z,47.65
2018-08-28T13:47:56.726Z,47.59
2018-08-28T13:53:02.581Z,47.69
2018-08-28T13:55:36.025Z,46.18
2018-08-28T13:58:09.404Z,46.33
2018-08-28T14:00:42.814Z,46.93
2018-08-28T14:03:16.207Z,46.05
2018-08-28T14:05:49.627Z,45.74
2018-08-28T14:08:23.016Z,46.16
2018-08-28T14:10:56.430Z,46.57
2018-08-28T14:13:29.866Z,46.09
2018-08-28T14:16:03.263Z,45.27
2018-08-28T14:18:36.709Z,42.36
2018-08-28T14:21:10.113Z,44.43
2018-08-28T14:23:43.528Z,44.67
2018-08-28T14:26:16.950Z,43.46
2018-08-28T14:28:50.462Z,42.62
2018-08-28T14:31:23.778Z,43.54
2018-08-28T14:33:57.211Z,43.79
2018-08-28T14:36:30.623Z,43.43
2018-08-28T14:39:05.197Z,44.49
2018-08-28T14:41:38.648Z,44.54
2018-08-28T14:44:12.085Z,43.84
2018-08-28T14:46:45.494Z,43.96
2018-08-28T14:49:18.874Z,41.17
2018-08-28T14:51:52.285Z,43.75
2018-08-28T14:54:25.734Z,43.18
2018-08-28T14:56:59.149Z,42.97
2018-08-28T14:59:32.586Z,43.58
2018-08-28T15:02:06.004Z,44.35
2018-08-28T15:04:39.413Z,43.08
2018-08-28T15:07:12.938Z,44.20
2018-08-28T15:09:46.315Z,44.13
2018-08-28T15:12:19.731Z,43.36
2018-08-28T15:14:53.120Z,45.74
2018-08-28T15:17:26.550Z,44.90
2018-08-28T15:20:00.557Z,43.27
2018-08-28T15:22:33.955Z,39.73
2018-08-28T15:25:07.708Z,41.17
2018-08-28T15:27:41.157Z,43.17
2018-08-28T15:30:14.479Z,43.63
2018-08-28T15:32:47.951Z,41.81
2018-08-28T15:35:21.285Z,42.22
2018-08-28T15:37:54.706Z,42.44
2018-08-28T15:40:28.083Z,43.48
2018-08-28T15:43:01.538Z,42.82
2018-08-28T15:45:34.889Z,42.78
2018-08-28T15:48:09.164Z,43.42
2018-08-28T15:50:42.587Z,43.50
2018-08-28T15:53:15.979Z,44.23
2018-08-28T15:55:49.385Z,44.36
2018-08-28T15:58:22.758Z,43.14
2018-08-28T16:00:56.167Z,43.44
2018-08-28T16:03:29.529Z,42.82
2018-08-28T16:06:03.028Z,44.42
2018-08-28T16:08:36.396Z,44.46
2018-08-28T16:11:09.947Z,45.26
2018-08-28T16:13:43.388Z,44.23
2018-08-28T16:16:16.953Z,44.54
2018-08-28T16:18:50.997Z,43.39
2018-08-28T16:21:27.923Z,43.24
2018-08-28T16:24:01.316Z,45.32
2018-08-28T16:26:34.694Z,44.50
2018-08-28T16:29:08.062Z,44.73
2018-08-28T16:31:41.452Z,42.79
2018-08-28T16:34:14.859Z,43.83
2018-08-28T16:36:48.221Z,44.13
2018-08-28T16:39:21.633Z,44.69
2018-08-28T16:41:55.028Z,44.36
2018-08-28T16:44:28.450Z,45.39
2018-08-28T16:47:01.886Z,47.80
2018-08-28T16:49:35.318Z,48.17
2018-08-28T16:52:08.815Z,48.12
2018-08-28T16:54:42.209Z,48.15
2018-08-28T16:57:15.962Z,48.57
2018-08-28T16:59:49.395Z,49.58
2018-08-28T17:02:23.350Z,48.90
2018-08-28T17:04:56.790Z,49.10
2018-08-28T17:07:30.325Z,49.44
2018-08-28T17:10:03.681Z,50.62
2018-08-28T17:12:37.844Z,48.76
2018-08-28T17:15:11.263Z,48.36
2018-08-28T17:17:44.605Z,49.10
2018-08-28T17:20:17.949Z,48.10
2018-08-28T17:22:51.321Z,47.82
2018-08-28T17:25:24.696Z,48.30
2018-08-28T17:27:58.110Z,48.39
2018-08-28T17:30:32.486Z,49.02
2018-08-28T17:33:06.214Z,49.47
2018-08-28T17:35:39.595Z,50.36
2018-08-28T17:38:12.956Z,49.68
2018-08-28T17:40:46.351Z,49.84
2018-08-28T17:43:19.864Z,51.04
2018-08-28T17:45:53.271Z,50.95
2018-08-28T17:48:26.624Z,51.80
2018-08-28T17:51:00.000Z,51.88
2018-08-28T17:53:33.548Z,51.85
2018-08-28T17:56:06.975Z,51.51
2018-08-28T17:58:40.417Z,52.25
2018-08-28T18:01:13.859Z,52.21
2018-08-28T18:03:47.260Z,52.71
2018-08-28T18:06:20.616Z,52.73
2018-08-28T18:08:53.978Z,53.04
2018-08-28T18:11:28.217Z,53.45
2018-08-28T18:14:04.422Z,53.59
2018-08-28T18:16:40.670Z,54.21
2018-08-28T18:19:14.135Z,53.63
2018-08-28T18:21:47.546Z,53.95
2018-08-28T18:24:20.894Z,54.68
2018-08-28T18:26:54.768Z,55.12
2018-08-28T18:29:28.163Z,55.70
2018-08-28T18:32:02.753Z,55.69
2018-08-28T18:34:36.226Z,55.29
2018-08-28T18:37:10.026Z,55.56
2018-08-28T18:39:43.436Z,55.53
2018-08-28T18:42:16.787Z,55.38
2018-08-28T18:44:50.156Z,55.94
2018-08-28T18:47:23.532Z,55.84
2018-08-28T18:49:56.909Z,55.90
2018-08-28T18:52:31.021Z,55.82
2018-08-28T18:55:04.383Z,55.84
2018-08-28T18:57:37.771Z,56.45
2018-08-28T19:00:11.164Z,56.03
2018-08-28T19:02:44.573Z,56.73
2018-08-28T19:05:17.954Z,56.84
2018-08-28T19:07:51.401Z,57.61
2018-08-28T19:10:24.719Z,56.92
2018-08-28T19:12:59.013Z,56.56
2018-08-28T19:15:33.089Z,56.59
2018-08-28T19:18:06.480Z,56.83
2018-08-28T19:20:39.954Z,57.04
2018-08-28T19:23:13.729Z,56.58
2018-08-28T19:25:47.112Z,56.99
2018-08-28T19:28:20.560Z,57.43
2018-08-28T19:30:54.752Z,57.21
2018-08-28T19:33:28.895Z,57.32
2018-08-28T19:36:02.527Z,57.43
2018-08-28T19:38:36.429Z,57.94
2018-08-28T19:41:10.032Z,57.47
2018-08-28T19:43:43.414Z,56.90
2018-08-28T19:46:17.050Z,57.04
2018-08-28T19:48:50.436Z,57.01
2018-08-28T19:51:25.471Z,57.52
2018-08-28T19:53:59.471Z,57.20
2018-08-28T19:56:33.119Z,57.31
2018-08-28T19:59:06.592Z,57.98
2018-08-28T20:01:39.946Z,58.01
2018-08-28T20:04:13.400Z,58.15
2018-08-28T20:06:46.805Z,58.62
2018-08-28T20:09:20.200Z,59.01
2018-08-28T20:11:53.589Z,59.02
2018-08-28T20:14:27.043Z,58.69
2018-08-28T20:17:00.412Z,58.78
2018-08-28T20:19:33.840Z,58.73
2018-08-28T20:22:09.180Z,58.85
2018-08-28T20:24:42.595Z,59.46
2018-08-28T20:27:16.087Z,59.23
2018-08-28T20:29:49.446Z,59.08
2018-08-28T20:32:22.852Z,59.59
2018-08-28T20:34:56.242Z,59.08
2018-08-28T20:37:29.734Z,59.41
2018-08-28T20:40:03.132Z,59.88
2018-08-28T20:42:36.649Z,60.02
2018-08-28T20:45:10.080Z,59.76
2018-08-28T20:47:43.456Z,59.94
2018-08-28T20:50:16.886Z,59.83
2018-08-28T20:52:50.309Z,59.88
2018-08-28T20:55:23.748Z,60.04
2018-08-28T20:57:57.255Z,60.00
2018-08-28T21:00:30.684Z,60.70
2018-08-28T21:03:04.562Z,60.61
2018-08-28T21:05:38.007Z,60.79
2018-08-28T21:08:11.419Z,60.51
2018-08-28T21:10:44.829Z,61.02
2018-08-28T21:13:18.275Z,61.14
2018-08-28T21:15:51.712Z,61.31
2018-08-28T21:18:25.185Z,60.98
2018-08-28T21:20:58.656Z,61.14
2018-08-28T21:23:32.071Z,61.08
2018-08-28T21:26:05.691Z,61.55
2018-08-28T21:28:39.085Z,61.78
2018-08-28T21:31:12.505Z,61.91
2018-08-28T21:33:45.920Z,62.34
2018-08-28T21:36:19.568Z,61.81
2018-08-28T21:38:52.902Z,61.77
2018-08-28T21:41:26.253Z,61.93
2018-08-28T21:43:59.590Z,61.81
2018-08-28T21:46:32.921Z,62.34
2018-08-28T21:49:06.774Z,62.63
2018-08-28T21:51:40.109Z,62.61
2018-08-28T21:54:13.418Z,62.45
2018-08-28T21:56:46.741Z,62.51
2018-08-28T21:59:20.066Z,62.46
2018-08-28T22:01:53.417Z,62.43
2018-08-28T22:04:26.765Z,62.67
2018-08-28T22:07:05.496Z,62.57
2018-08-28T22:09:38.913Z,62.71
2018-08-28T22:12:12.221Z,62.78
2018-08-28T22:14:45.679Z,62.86
2018-08-28T22:17:19.039Z,62.19
2018-08-28T22:19:52.334Z,62.41
2018-08-28T22:22:25.650Z,62.87
2018-08-28T22:24:59.005Z,62.98
2018-08-28T22:27:32.325Z,62.82
2018-08-28T22:30:07.054Z,63.07
2018-08-28T22:32:41.445Z,63.02
2018-08-28T22:35:14.757Z,62.68
2018-08-28T22:37:48.274Z,62.79
2018-08-28T22:40:22.046Z,62.69
2018-08-28T22:42:55.583Z,62.74
2018-08-28T22:45:29.866Z,62.91
2018-08-28T22:48:03.372Z,63.15
2018-08-28T22:50:36.960Z,62.98
2018-08-28T22:53:10.475Z,63.17
2018-08-28T22:55:44.028Z,63.03
2018-08-28T22:58:17.562Z,62.76
2018-08-28T23:00:50.879Z,62.85
2018-08-28T23:03:24.408Z,63.15
2018-08-28T23:05:57.773Z,63.30
2018-08-28T23:08:31.131Z,63.25
2018-08-28T23:11:04.605Z,63.93
2018-08-28T23:13:37.945Z,63.95
2018-08-28T23:16:11.253Z,63.55
2018-08-28T23:18:44.607Z,64.14
2018-08-28T23:21:18.002Z,63.99
2018-08-28T23:23:51.393Z,63.60
2018-08-28T23:26:24.706Z,63.85
2018-08-28T23:28:58.893Z,64.14
2018-08-28T23:31:32.218Z,63.92
2018-08-28T23:34:05.548Z,63.93
2018-08-28T23:36:39.162Z,63.83
2018-08-28T23:39:12.549Z,64.24
2018-08-28T23:41:46.889Z,63.77
2018-08-28T23:44:20.397Z,64.01
2018-08-28T23:46:53.700Z,63.55
2018-08-28T23:49:27.170Z,63.82
2018-08-28T23:52:00.468Z,63.76
2018-08-28T23:54:33.827Z,64.16
2018-08-28T23:57:07.147Z,63.88
2018-08-28T23:59:40.849Z,63.65
